Map

Track Data

SID SEASON NUMBER BASIN SUBBASIN NAME ISO_TIME NATURE LAT LON WMO_WIND WMO_PRES WMO_AGENCY TRACK_TYPE DIST2LAND LANDFALL IFLAG USA_AGENCY USA_ATCF_ID USA_LAT USA_LON USA_RECORD USA_STATUS USA_WIND USA_PRES USA_SSHS USA_R34_NE USA_R34_SE USA_R34_SW USA_R34_NW USA_R50_NE USA_R50_SE USA_R50_SW USA_R50_NW USA_R64_NE USA_R64_SE USA_R64_SW USA_R64_NW USA_POCI USA_ROCI USA_RMW USA_EYE TOKYO_LAT TOKYO_LON TOKYO_GRADE TOKYO_WIND TOKYO_PRES TOKYO_R50_DIR TOKYO_R50_LONG TOKYO_R50_SHORT TOKYO_R30_DIR TOKYO_R30_LONG TOKYO_R30_SHORT TOKYO_LAND CMA_LAT CMA_LON CMA_CAT CMA_WIND CMA_PRES HKO_LAT HKO_LON HKO_CAT HKO_WIND HKO_PRES NEWDELHI_LAT NEWDELHI_LON NEWDELHI_GRADE NEWDELHI_WIND NEWDELHI_PRES NEWDELHI_CI NEWDELHI_DP NEWDELHI_POCI REUNION_LAT REUNION_LON REUNION_TYPE REUNION_WIND REUNION_PRES REUNION_TNUM REUNION_CI REUNION_RMW REUNION_R34_NE REUNION_R34_SE REUNION_R34_SW REUNION_R34_NW REUNION_R50_NE REUNION_R50_SE REUNION_R50_SW REUNION_R50_NW REUNION_R64_NE REUNION_R64_SE REUNION_R64_SW REUNION_R64_NW BOM_LAT BOM_LON BOM_TYPE BOM_WIND BOM_PRES BOM_TNUM BOM_CI BOM_RMW BOM_R34_NE BOM_R34_SE BOM_R34_SW BOM_R34_NW BOM_R50_NE BOM_R50_SE BOM_R50_SW BOM_R50_NW BOM_R64_NE BOM_R64_SE BOM_R64_SW BOM_R64_NW BOM_ROCI BOM_POCI BOM_EYE BOM_POS_METHOD BOM_PRES_METHOD NADI_LAT NADI_LON NADI_CAT NADI_WIND NADI_PRES WELLINGTON_LAT WELLINGTON_LON WELLINGTON_WIND WELLINGTON_PRES DS824_LAT DS824_LON DS824_STAGE DS824_WIND DS824_PRES TD9636_LAT TD9636_LON TD9636_STAGE TD9636_WIND TD9636_PRES TD9635_LAT TD9635_LON TD9635_WIND TD9635_PRES TD9635_ROCI NEUMANN_LAT NEUMANN_LON NEUMANN_CLASS NEUMANN_WIND NEUMANN_PRES MLC_LAT MLC_LON MLC_CLASS MLC_WIND MLC_PRES USA_GUST BOM_GUST BOM_GUST_PER REUNION_GUST REUNION_GUST_PER USA_SEAHGT USA_SEARAD_NE USA_SEARAD_SE USA_SEARAD_SW USA_SEARAD_NW STORM_SPEED STORM_DIR
1981198N18253 1981 50 EP MM EUGENE 1981-07-16 18:00:00 TS 17.5000 -106.600 25 hurdat_epa main 268 268 O_________O___ hurdat_epa EP051981 17.5000 -106.600 TD 25 -1 17.5000 -106.600 1 25 8 284
1981198N18253 1981 50 EP MM EUGENE 1981-07-16 21:00:00 TS 17.5987 -107.009 main 291 291 P_________P___ EP051981 17.6002 -107.010 TD 25 -1 17.5943 -107.008 1 25 8 285
1981198N18253 1981 50 EP MM EUGENE 1981-07-17 00:00:00 TS 17.7000 -107.400 25 hurdat_epa main 314 314 O_________O___ hurdat_epa EP051981 17.7000 -107.400 TD 25 -1 17.7000 -107.400 1 25 7 286
1981198N18253 1981 50 EP MM EUGENE 1981-07-17 03:00:00 TS 17.8058 -107.760 main 338 338 P_________P___ EP051981 17.7999 -107.758 TD 25 -1 17.8236 -107.766 1 25 7 288
1981198N18253 1981 50 EP MM EUGENE 1981-07-17 06:00:00 TS 17.9118 -108.103 25 hurdat_epa main 356 356 O_________P___ hurdat_epa EP051981 17.9000 -108.100 TD 25 -1 17.9473 -108.113 1 25 7 288
1981198N18253 1981 50 EP MM EUGENE 1981-07-17 09:00:00 TS 18.0230 -108.445 main 377 377 P_________P___ EP051981 18.0149 -108.442 TD 25 -1 18.0474 -108.454 1 25 7 286
1981198N18253 1981 50 EP MM EUGENE 1981-07-17 12:00:00 TS 18.1000 -108.800 25 hurdat_epa main 406 406 O_________O___ hurdat_epa EP051981 18.1000 -108.800 TD 25 -1 18.1000 -108.800 1 25 7 278
1981198N18253 1981 50 EP MM EUGENE 1981-07-17 15:00:00 TS 18.1220 -109.197 main 443 443 P_________P___ EP051981 18.1375 -109.200 TD 27 -1 18.0754 -109.189 1 26 8 268
1981198N18253 1981 50 EP MM EUGENE 1981-07-17 18:00:00 TS 18.0757 -109.595 30 hurdat_epa main 480 480 O_________P___ hurdat_epa EP051981 18.1000 -109.600 TD 30 -1 18.0027 -109.581 1 27 8 257
1981198N18253 1981 50 EP MM EUGENE 1981-07-17 21:00:00 TS 17.9496 -109.969 main 528 528 P_________P___ EP051981 17.9650 -109.973 TD 30 -1 17.9036 -109.957 1 28 7 248
1981198N18253 1981 50 EP MM EUGENE 1981-07-18 00:00:00 TS 17.8000 -110.300 30 hurdat_epa main 561 561 O_________O___ hurdat_epa EP051981 17.8000 -110.300 TD 30 -1 17.8000 -110.300 1 30 6 245
1981198N18253 1981 50 EP MM EUGENE 1981-07-18 03:00:00 TS 17.6857 -110.566 main 584 584 P_________P___ EP051981 17.6849 -110.565 TD 32 -1 17.6879 -110.570 1 31 5 247
1981198N18253 1981 50 EP MM EUGENE 1981-07-18 06:00:00 TS 17.5954 -110.802 35 hurdat_epa main 598 598 O_________P___ hurdat_epa EP051981 17.6000 -110.800 TS 35 0 17.5818 -110.808 1 32 5 251
1981198N18253 1981 50 EP MM EUGENE 1981-07-18 09:00:00 TS 17.5287 -111.048 main 612 612 P_________P___ EP051981 17.5350 -111.050 TS 35 0 17.5098 -111.042 1 33 5 259
1981198N18253 1981 50 EP MM EUGENE 1981-07-18 12:00:00 TS 17.5000 -111.300 35 hurdat_epa main 618 618 O_________O___ hurdat_epa EP051981 17.5000 -111.300 TS 35 0 17.5000 -111.300 2 35 5 264
1981198N18253 1981 50 EP MM EUGENE 1981-07-18 15:00:00 TS 17.4777 -111.538 main 623 623 P_________P___ EP051981 17.4473 -111.520 TS 37 0 17.5687 -111.593 2 37 5 276
1981198N18253 1981 50 EP MM EUGENE 1981-07-18 18:00:00 TS 17.5505 -111.829 40 hurdat_epa main 621 614 O_________P___ hurdat_epa EP051981 17.5000 -111.800 TS 40 0 17.7019 -111.918 2 40 7 295
1981198N18253 1981 50 EP MM EUGENE 1981-07-18 21:00:00 TS 17.7873 -112.225 main 614 601 P_________P___ EP051981 17.7550 -112.205 TS 42 0 17.8842 -112.284 2 42 10 304
1981198N18253 1981 50 EP MM EUGENE 1981-07-19 00:00:00 TS 18.1000 -112.700 45 hurdat_epa main 605 600 O_________O___ hurdat_epa EP051981 18.1000 -112.700 TS 45 0 18.1000 -112.700 2 45 11 303
1981198N18253 1981 50 EP MM EUGENE 1981-07-19 03:00:00 TS 18.3957 -113.226 main 603 599 P_________P___ EP051981 18.4150 -113.242 TS 45 0 18.3377 -113.178 2 45 12 299
1981198N18253 1981 50 EP MM EUGENE 1981-07-19 06:00:00 TS 18.6751 -113.776 45 hurdat_epa main 613 613 O_________P___ hurdat_epa EP051981 18.7000 -113.800 TS 45 0 18.6003 -113.704 2 45 11 296
1981198N18253 1981 50 EP MM EUGENE 1981-07-19 09:00:00 TS 18.8962 -114.300 main 631 631 P_________P___ EP051981 18.9074 -114.315 TS 45 0 18.8627 -114.253 2 45 11 294
1981198N18253 1981 50 EP MM EUGENE 1981-07-19 12:00:00 TS 19.1000 -114.800 45 hurdat_epa main 654 654 O_________O___ hurdat_epa EP051981 19.1000 -114.800 TS 45 0 19.1000 -114.800 2 45 10 297
1981198N18253 1981 50 EP MM EUGENE 1981-07-19 15:00:00 TS 19.3495 -115.250 main 672 672 P_________P___ EP051981 19.3722 -115.242 TS 45 0 19.2815 -115.272 2 42 10 298
1981198N18253 1981 50 EP MM EUGENE 1981-07-19 18:00:00 TS 19.5589 -115.710 45 hurdat_epa main 679 679 O_________P___ hurdat_epa EP051981 19.6000 -115.700 TS 45 0 19.4355 -115.741 2 40 10 288
1981198N18253 1981 50 EP MM EUGENE 1981-07-19 21:00:00 TS 19.6471 -116.220 main 709 700 P_________P___ EP051981 19.6722 -116.213 TS 40 0 19.5719 -116.240 2 37 10 278
1981198N18253 1981 50 EP MM EUGENE 1981-07-20 00:00:00 TS 19.7000 -116.800 35 hurdat_epa main 739 739 O_________O___ hurdat_epa EP051981 19.7000 -116.800 TS 35 0 19.7000 -116.800 2 35 12 277
1981198N18253 1981 50 EP MM EUGENE 1981-07-20 03:00:00 TS 19.7968 -117.469 main 780 780 P_________P___ EP051981 19.7849 -117.470 TS 35 0 19.8326 -117.465 2 33 13 279
1981198N18253 1981 50 EP MM EUGENE 1981-07-20 06:00:00 TS 19.9145 -118.198 35 hurdat_epa main 824 824 O_________P___ hurdat_epa EP051981 19.9000 -118.200 TS 35 0 19.9580 -118.190 2 32 14 280
1981198N18253 1981 50 EP MM EUGENE 1981-07-20 09:00:00 TS 20.0460 -118.955 main 880 873 P_________P___ EP051981 20.0350 -118.958 TS 32 -1 20.0793 -118.946 2 31 14 281
1981198N18253 1981 50 EP MM EUGENE 1981-07-20 12:00:00 TS 20.2000 -119.700 30 hurdat_epa main 925 925 O_________O___ hurdat_epa EP051981 20.2000 -119.700 TD 30 -1 20.2000 -119.700 1 30 14 285
1981198N18253 1981 50 EP MM EUGENE 1981-07-20 15:00:00 TS 20.3908 -120.365 main 974 974 P_________P___ EP051981 20.4144 -120.350 TD 30 -1 20.3201 -120.412 1 30 13 286
1981198N18253 1981 50 EP MM EUGENE 1981-07-20 18:00:00 TS 20.5603 -121.029 30 hurdat_epa main 996 996 O_________P___ hurdat_epa EP051981 20.6000 -121.000 TD 30 -1 20.4414 -121.116 1 30 13 281
1981198N18253 1981 50 EP MM EUGENE 1981-07-20 21:00:00 TS 20.6349 -121.766 main 1050 1050 P_________P___ EP051981 20.6575 -121.751 TD 30 -1 20.5670 -121.812 1 30 14 276
1981198N18253 1981 50 EP MM EUGENE 1981-07-21 00:00:00 TS 20.7000 -122.500 30 hurdat_epa main 1090 1090 O_________O___ hurdat_epa EP051981 20.7000 -122.500 TD 30 -1 20.7000 -122.500 1 30 13 279
1981198N18253 1981 50 EP MM EUGENE 1981-07-21 03:00:00 TS 20.8423 -123.179 main 1132 1125 P_________P___ EP051981 20.8345 -123.157 TD 30 -1 20.8656 -123.242 1 28 13 284
1981198N18253 1981 50 EP MM EUGENE 1981-07-21 06:00:00 TS 21.0087 -123.842 30 hurdat_epa main 1162 1162 O_________P___ hurdat_epa EP051981 21.0000 -123.800 TD 30 -1 21.0346 -123.968 1 27 13 284
1981198N18253 1981 50 EP MM EUGENE 1981-07-21 09:00:00 TS 21.1705 -124.562 main 1211 1211 P_________P___ EP051981 21.1653 -124.537 TD 27 -1 21.1862 -124.636 1 26 13 283
1981198N18253 1981 50 EP MM EUGENE 1981-07-21 12:00:00 TS 21.3000 -125.200 25 hurdat_epa main 1254 1254 O_________O___ hurdat_epa EP051981 21.3000 -125.200 TD 25 -1 21.3000 -125.200 1 25 10 281
1981198N18253 1981 50 EP MM EUGENE 1981-07-21 15:00:00 TS 21.3684 -125.656 main 1289 1289 P_________P___ EP051981 21.3698 -125.663 TD 22 -1 21.3644 -125.637 1 22 8 278
1981198N18253 1981 50 EP MM EUGENE 1981-07-21 18:00:00 TS 21.4000 -126.000 20 hurdat_epa main 1314 O_________O___ hurdat_epa EP051981 21.4000 -126.000 TD 20 -1 21.4000 -126.000 1 20 6 276

About IBTrACS Database

This database is a web-friendly format of International Best Track Archive for Climate Stewardship (IBTrACS), a global best track data archive curated by NOAA dating back to 1842.

Updated: 2021-12-08